createdAt,value
2023-10-06T00:00:41.688Z,2.53
2023-10-06T00:03:12.311Z,9.15
2023-10-06T00:05:40.698Z,4.47
2023-10-06T00:08:12.214Z,5.80
2023-10-06T00:10:45.520Z,4.60
2023-10-06T00:13:20.114Z,2.42
2023-10-06T00:15:51.094Z,2.63
2023-10-06T00:18:21.430Z,1.50
2023-10-06T00:20:51.006Z,2.85
2023-10-06T00:23:23.073Z,2.25
2023-10-06T00:25:53.864Z,1.65
2023-10-06T00:28:27.234Z,3.05
2023-10-06T00:30:58.057Z,3.70
2023-10-06T00:33:29.169Z,2.08
2023-10-06T00:35:58.239Z,4.65
2023-10-06T00:38:26.198Z,1.60
2023-10-06T00:40:54.104Z,3.20
2023-10-06T00:43:36.109Z,3.08
2023-10-06T00:46:08.567Z,2.45
2023-10-06T00:48:40.927Z,9.88
2023-10-06T00:51:13.758Z,1.77
2023-10-06T00:53:42.505Z,3.90
2023-10-06T00:56:16.690Z,2.15
2023-10-06T00:58:46.932Z,2.60
2023-10-06T01:01:18.731Z,5.75
2023-10-06T01:03:50.026Z,3.97
2023-10-06T01:06:19.646Z,4.03
2023-10-06T01:08:53.923Z,7.60
2023-10-06T01:11:27.840Z,6.38
2023-10-06T01:13:57.525Z,3.10
2023-10-06T01:16:31.186Z,3.85
2023-10-06T01:19:15.335Z,1.95
2023-10-06T01:21:46.880Z,6.57
2023-10-06T01:24:25.566Z,3.45
2023-10-06T01:26:55.271Z,5.28
2023-10-06T01:29:30.237Z,7.13
2023-10-06T01:31:58.366Z,5.90
2023-10-06T01:34:28.594Z,2.67
2023-10-06T01:36:57.285Z,28.67
2023-10-06T01:39:31.612Z,2.47
2023-10-06T01:42:05.165Z,3.33
2023-10-06T01:44:33.238Z,3.65
2023-10-06T01:47:01.092Z,5.38
2023-10-06T01:49:29.309Z,3.15
2023-10-06T01:52:09.017Z,2.53
2023-10-06T01:54:39.743Z,5.43
2023-10-06T01:57:08.765Z,5.88
2023-10-06T01:59:36.671Z,2.40
2023-10-06T02:02:05.708Z,4.15
2023-10-06T02:04:40.720Z,5.82
2023-10-06T02:07:11.777Z,5.43
2023-10-06T02:09:41.314Z,6.43
2023-10-06T02:12:09.679Z,2.75
2023-10-06T02:14:37.884Z,5.07
2023-10-06T02:17:07.761Z,5.68
2023-10-06T02:22:07.414Z,3.90
2023-10-06T02:24:35.727Z,5.00
2023-10-06T02:27:05.628Z,2.33
2023-10-06T02:29:33.458Z,3.80
2023-10-06T02:32:07.278Z,3.30
2023-10-06T02:34:37.909Z,7.35
2023-10-06T02:37:07.361Z,4.45
2023-10-06T02:39:38.825Z,2.97
2023-10-06T02:42:10.593Z,2.78
2023-10-06T02:44:42.401Z,4.35
2023-10-06T02:47:12.313Z,3.65
2023-10-06T02:49:42.371Z,4.10
2023-10-06T02:55:10.025Z,2.03
2023-10-06T02:57:43.642Z,2.50
2023-10-06T03:00:29.317Z,3.38
2023-10-06T03:02:58.716Z,2.63
2023-10-06T03:05:33.255Z,3.45
2023-10-06T03:08:03.022Z,8.15
2023-10-06T03:10:37.138Z,3.53
2023-10-06T03:13:09.862Z,2.67
2023-10-06T03:15:46.482Z,4.63
2023-10-06T03:18:17.479Z,4.47
2023-10-06T03:20:49.486Z,3.47
2023-10-06T03:23:34.285Z,1.75
2023-10-06T03:26:05.591Z,2.53
2023-10-06T03:28:37.956Z,2.95
2023-10-06T03:31:22.855Z,3.78
2023-10-06T03:33:55.469Z,6.53
2023-10-06T03:36:30.399Z,2.63
2023-10-06T03:38:58.458Z,1.63
2023-10-06T03:41:32.642Z,5.00
2023-10-06T03:44:04.504Z,2.08
2023-10-06T03:46:38.307Z,3.15
2023-10-06T03:49:06.699Z,6.50
2023-10-06T03:51:39.049Z,2.58
2023-10-06T03:54:09.030Z,1.90
2023-10-06T03:59:13.786Z,2.80
2023-10-06T04:01:45.535Z,5.18
2023-10-06T04:04:15.415Z,7.38
2023-10-06T04:06:45.381Z,6.30
2023-10-06T04:09:20.104Z,3.45
2023-10-06T04:11:48.246Z,2.55
2023-10-06T04:14:18.017Z,2.65
2023-10-06T04:16:47.194Z,3.28
2023-10-06T04:19:17.403Z,5.40
2023-10-06T04:21:45.337Z,4.93
2023-10-06T04:24:15.874Z,3.53
2023-10-06T04:26:43.809Z,2.42
2023-10-06T04:29:14.640Z,2.38
2023-10-06T04:31:47.140Z,3.20
2023-10-06T04:34:15.302Z,1.83
2023-10-06T04:36:44.050Z,2.58
2023-10-06T04:39:12.643Z,1.58
2023-10-06T04:41:42.443Z,3.90
2023-10-06T04:44:11.340Z,3.83
2023-10-06T04:46:40.848Z,2.50
2023-10-06T04:49:10.490Z,5.65
2023-10-06T04:51:38.402Z,4.03
2023-10-06T04:54:09.485Z,3.78
2023-10-06T04:56:37.542Z,3.25
2023-10-06T04:59:07.906Z,2.78
2023-10-06T05:01:36.301Z,3.20
2023-10-06T05:04:07.483Z,2.70
2023-10-06T05:06:37.077Z,7.60
2023-10-06T05:09:07.622Z,3.47
2023-10-06T05:11:37.106Z,4.97
2023-10-06T05:14:06.099Z,3.20
2023-10-06T05:16:36.174Z,3.85
2023-10-06T05:21:32.942Z,3.72
2023-10-06T05:24:02.130Z,2.63
2023-10-06T05:26:30.043Z,4.37
2023-10-06T05:28:58.026Z,2.90
2023-10-06T05:31:25.889Z,5.32
2023-10-06T05:33:53.987Z,1.17
2023-10-06T05:36:21.899Z,2.58
2023-10-06T05:38:50.513Z,4.13
2023-10-06T05:41:20.338Z,5.88
2023-10-06T05:43:50.207Z,3.10
2023-10-06T05:46:18.225Z,6.60
2023-10-06T05:48:46.063Z,2.90
2023-10-06T05:51:20.002Z,4.03
2023-10-06T05:53:49.534Z,4.07
2023-10-06T05:56:19.523Z,2.38
2023-10-06T05:58:48.943Z,2.47
2023-10-06T06:01:20.209Z,2.85
2023-10-06T06:03:49.116Z,5.60
2023-10-06T06:06:18.007Z,3.72
2023-10-06T06:08:49.003Z,4.05
2023-10-06T06:11:17.634Z,6.18
2023-10-06T06:13:52.895Z,4.35
2023-10-06T06:16:29.189Z,7.38
2023-10-06T06:18:57.615Z,4.70
2023-10-06T06:21:26.638Z,5.63
2023-10-06T06:23:56.980Z,1.48
2023-10-06T06:26:25.436Z,2.90
2023-10-06T06:28:54.152Z,2.92
2023-10-06T06:31:22.686Z,4.82
2023-10-06T06:33:58.278Z,2.70
2023-10-06T06:36:26.724Z,4.38
2023-10-06T06:38:55.134Z,3.17
2023-10-06T06:41:23.392Z,4.18
2023-10-06T06:43:55.773Z,4.47
2023-10-06T06:46:23.706Z,5.43
2023-10-06T06:48:53.231Z,4.22
2023-10-06T06:51:21.168Z,6.70
2023-10-06T06:53:49.306Z,1.67
2023-10-06T06:56:18.363Z,10.23
2023-10-06T06:58:47.745Z,2.88
2023-10-06T07:01:17.318Z,4.10
2023-10-06T07:03:45.378Z,2.15
2023-10-06T07:06:17.592Z,3.97
2023-10-06T07:08:46.829Z,3.72
2023-10-06T07:11:16.841Z,3.10
2023-10-06T07:13:46.694Z,6.13
2023-10-06T07:16:15.811Z,2.85
2023-10-06T07:18:44.120Z,3.40
2023-10-06T07:21:12.715Z,1.75
2023-10-06T07:23:41.992Z,4.18
2023-10-06T07:26:13.168Z,3.72
2023-10-06T07:28:41.262Z,2.17
2023-10-06T07:31:14.454Z,6.90
2023-10-06T07:33:43.482Z,4.68
2023-10-06T07:36:15.441Z,3.80
2023-10-06T07:38:44.665Z,3.60
2023-10-06T07:41:19.248Z,3.35
2023-10-06T07:43:49.267Z,3.55
2023-10-06T07:46:18.163Z,3.05
2023-10-06T07:48:47.310Z,4.15
2023-10-06T07:51:17.443Z,3.45
2023-10-06T07:53:46.876Z,5.63
2023-10-06T07:56:15.881Z,1.30
2023-10-06T07:58:44.627Z,2.45
2023-10-06T08:01:14.495Z,1.90
2023-10-06T08:03:43.489Z,2.22
2023-10-06T08:06:13.018Z,2.67
2023-10-06T08:08:40.922Z,4.67
2023-10-06T08:11:11.485Z,1.52
2023-10-06T08:13:40.078Z,2.25
2023-10-06T08:16:09.063Z,4.95
2023-10-06T08:18:36.984Z,2.38
2023-10-06T08:21:05.046Z,4.18
2023-10-06T08:23:33.682Z,1.33
2023-10-06T08:26:02.616Z,2.58
2023-10-06T08:28:32.871Z,2.85
2023-10-06T08:31:03.866Z,4.95
2023-10-06T08:33:32.907Z,5.38
2023-10-06T08:36:02.991Z,2.92
2023-10-06T08:38:31.897Z,5.72
2023-10-06T08:41:04.273Z,4.35
2023-10-06T08:43:39.986Z,3.45
2023-10-06T08:46:09.412Z,2.10
2023-10-06T08:48:38.114Z,4.78
2023-10-06T08:51:09.039Z,6.28
2023-10-06T08:53:39.451Z,1.63
2023-10-06T08:58:37.713Z,1.98
2023-10-06T09:01:07.621Z,2.55
2023-10-06T09:03:40.199Z,4.30
2023-10-06T09:06:09.865Z,3.33
2023-10-06T09:08:41.485Z,2.13
2023-10-06T09:11:09.539Z,4.55
2023-10-06T09:13:38.921Z,3.50
2023-10-06T09:16:08.364Z,4.38
2023-10-06T09:18:40.416Z,2.40
2023-10-06T09:21:17.342Z,3.50
2023-10-06T09:23:45.655Z,3.28
2023-10-06T09:26:14.750Z,2.58
2023-10-06T09:28:54.380Z,3.25
2023-10-06T09:31:37.286Z,4.13
2023-10-06T09:34:09.181Z,2.35
2023-10-06T09:36:44.015Z,4.07
2023-10-06T09:39:18.774Z,4.65
2023-10-06T09:41:49.326Z,3.47
2023-10-06T09:44:21.327Z,4.20
2023-10-06T09:46:54.999Z,2.92
2023-10-06T09:49:24.026Z,1.38
2023-10-06T09:51:54.091Z,3.53
2023-10-06T09:54:22.503Z,3.10
2023-10-06T09:56:56.274Z,2.45
2023-10-06T10:04:46.918Z,1.27
2023-10-06T10:07:15.094Z,4.53
2023-10-06T10:09:44.839Z,2.45
2023-10-06T10:12:33.851Z,4.70
2023-10-06T10:15:17.324Z,4.18
2023-10-06T10:17:56.102Z,1.48
2023-10-06T10:20:27.050Z,3.20
2023-10-06T10:22:57.954Z,1.90
2023-10-06T10:25:26.608Z,1.77
2023-10-06T10:28:15.393Z,3.72
2023-10-06T10:30:54.997Z,3.63
2023-10-06T10:33:23.396Z,8.50
2023-10-06T10:36:21.295Z,4.50
2023-10-06T10:39:03.926Z,3.20
2023-10-06T10:41:36.248Z,4.38
2023-10-06T10:44:22.743Z,4.47
2023-10-06T10:46:55.210Z,7.13
2023-10-06T10:49:24.090Z,5.95
2023-10-06T10:51:55.959Z,2.85
2023-10-06T10:54:25.196Z,4.00
2023-10-06T10:56:54.428Z,2.67
2023-10-06T10:59:23.661Z,4.25
2023-10-06T11:01:54.357Z,4.00
2023-10-06T11:04:30.834Z,5.47
2023-10-06T11:07:02.628Z,6.30
2023-10-06T11:09:41.625Z,5.72
2023-10-06T11:12:25.899Z,6.15
2023-10-06T11:14:56.731Z,3.83
2023-10-06T11:17:26.179Z,4.45
2023-10-06T11:20:14.492Z,2.70
2023-10-06T11:22:43.228Z,4.03
2023-10-06T11:25:11.958Z,7.15
2023-10-06T11:27:40.824Z,2.45
2023-10-06T11:30:16.023Z,4.55
2023-10-06T11:32:44.127Z,5.00
2023-10-06T11:35:14.663Z,5.70
2023-10-06T11:37:43.362Z,7.22
2023-10-06T11:40:13.907Z,8.10
2023-10-06T11:42:42.687Z,2.85
2023-10-06T11:45:25.370Z,4.10
2023-10-06T11:47:54.818Z,5.38
2023-10-06T11:50:25.741Z,4.67
2023-10-06T11:52:54.518Z,5.05
2023-10-06T11:55:27.214Z,3.97
2023-10-06T11:57:55.577Z,2.42
2023-10-06T12:00:41.332Z,4.15
2023-10-06T12:03:12.695Z,9.05
2023-10-06T12:05:56.427Z,1.88
2023-10-06T12:08:26.080Z,5.43
2023-10-06T12:10:54.722Z,4.72
2023-10-06T12:13:22.973Z,4.03
2023-10-06T12:15:50.854Z,2.35
2023-10-06T12:18:18.776Z,3.28
2023-10-06T12:20:48.076Z,3.17
2023-10-06T12:23:16.015Z,3.92
2023-10-06T12:25:43.987Z,4.45
2023-10-06T12:28:15.573Z,5.32
2023-10-06T12:30:43.701Z,7.03
2023-10-06T12:33:12.493Z,3.10
2023-10-06T12:35:41.184Z,2.67
2023-10-06T12:38:10.676Z,3.42
2023-10-06T12:40:40.336Z,4.88
2023-10-06T12:43:09.320Z,3.67
2023-10-06T12:45:37.983Z,2.15
2023-10-06T12:48:09.088Z,4.70
2023-10-06T12:50:41.875Z,4.93
2023-10-06T12:53:12.978Z,4.88
2023-10-06T12:55:43.200Z,6.50
2023-10-06T12:58:15.833Z,7.60
2023-10-06T13:00:43.960Z,2.80
2023-10-06T13:03:17.074Z,3.78
2023-10-06T13:05:46.737Z,2.17
2023-10-06T13:08:18.891Z,5.40
2023-10-06T13:10:48.215Z,3.03
2023-10-06T13:13:18.043Z,1.95
2023-10-06T13:15:47.324Z,1.52
2023-10-06T13:18:17.368Z,5.35
2023-10-06T13:20:45.628Z,3.17
2023-10-06T13:23:13.551Z,1.50
2023-10-06T13:25:47.093Z,4.20
2023-10-06T13:28:18.129Z,2.30
2023-10-06T13:30:46.997Z,3.38
2023-10-06T13:33:15.924Z,4.32
2023-10-06T13:35:45.264Z,1.10
2023-10-06T13:38:14.423Z,2.67
2023-10-06T13:40:46.207Z,2.15
2023-10-06T13:43:14.963Z,3.67
2023-10-06T13:45:46.503Z,4.72
2023-10-06T13:48:17.045Z,3.60
2023-10-06T13:50:46.994Z,3.05
2023-10-06T13:53:16.467Z,2.97
2023-10-06T13:55:46.804Z,1.50
2023-10-06T13:58:14.795Z,3.38
2023-10-06T14:00:43.585Z,2.22
2023-10-06T14:03:15.312Z,1.48
2023-10-06T14:05:45.295Z,2.70
2023-10-06T14:08:18.957Z,3.70
2023-10-06T14:10:50.156Z,3.03
2023-10-06T14:13:24.288Z,3.53
2023-10-06T14:15:55.967Z,2.88
2023-10-06T14:18:26.379Z,1.75
2023-10-06T14:23:31.265Z,2.47
2023-10-06T14:26:02.238Z,2.78
2023-10-06T14:28:30.763Z,1.88
2023-10-06T14:31:10.301Z,1.33
2023-10-06T14:33:41.235Z,0.30
2023-10-06T14:36:28.822Z,0.73
2023-10-06T14:39:14.330Z,2.58
2023-10-06T14:42:01.081Z,0.70
2023-10-06T14:44:46.666Z,1.08
2023-10-06T14:47:14.770Z,1.38
2023-10-06T14:49:44.394Z,1.77
2023-10-06T14:52:14.324Z,0.50
2023-10-06T14:54:42.450Z,2.35
2023-10-06T14:57:12.034Z,1.15
2023-10-06T14:59:43.191Z,1.35
2023-10-06T15:02:12.138Z,2.92
2023-10-06T15:04:41.472Z,0.65
2023-10-06T15:07:12.396Z,1.20
2023-10-06T15:09:40.743Z,1.33
2023-10-06T15:12:08.803Z,1.80
2023-10-06T15:14:38.823Z,2.05
2023-10-06T15:17:10.944Z,1.30
2023-10-06T15:19:39.165Z,2.25
2023-10-06T15:22:09.768Z,4.25
2023-10-06T15:24:38.763Z,1.80
2023-10-06T15:27:08.149Z,3.92
2023-10-06T15:29:38.744Z,4.50
2023-10-06T15:34:36.528Z,1.88
2023-10-06T15:37:05.754Z,0.90
2023-10-06T15:39:34.538Z,1.63
2023-10-06T15:42:04.927Z,1.67
2023-10-06T15:47:03.223Z,3.13
2023-10-06T15:49:31.216Z,2.75
2023-10-06T15:51:59.145Z,4.60
2023-10-06T15:54:27.215Z,5.22
2023-10-06T15:56:55.062Z,4.97
2023-10-06T15:59:25.903Z,2.90
2023-10-06T16:01:55.722Z,4.10
2023-10-06T16:04:27.720Z,1.70
2023-10-06T16:06:59.177Z,2.92
2023-10-06T16:09:27.628Z,4.90
2023-10-06T16:11:55.678Z,3.25
2023-10-06T16:14:23.565Z,4.00
2023-10-06T16:16:51.468Z,7.55
2023-10-06T16:19:19.387Z,2.72
2023-10-06T16:21:50.522Z,4.05
2023-10-06T16:24:18.614Z,2.40
2023-10-06T16:26:46.440Z,3.15
2023-10-06T16:29:14.672Z,5.72
2023-10-06T16:31:43.484Z,4.85
2023-10-06T16:34:11.390Z,2.85
2023-10-06T16:36:40.464Z,4.88
2023-10-06T16:39:17.873Z,2.80
2023-10-06T16:41:46.553Z,3.90
2023-10-06T16:44:16.283Z,4.18
2023-10-06T16:46:44.548Z,5.15
2023-10-06T16:49:13.108Z,3.28
2023-10-06T16:51:41.511Z,4.70
2023-10-06T16:54:11.755Z,4.40
2023-10-06T16:56:39.798Z,6.90
2023-10-06T16:59:08.409Z,14.30
2023-10-06T17:01:36.589Z,4.78
2023-10-06T17:04:07.588Z,3.35
2023-10-06T17:06:36.658Z,4.20
2023-10-06T17:09:14.926Z,5.28
2023-10-06T17:11:45.028Z,4.07
2023-10-06T17:14:13.977Z,4.95
2023-10-06T17:16:42.838Z,5.45
2023-10-06T17:19:13.080Z,7.15
2023-10-06T17:21:41.008Z,4.45
2023-10-06T17:24:11.945Z,5.40
2023-10-06T17:26:40.074Z,4.20
2023-10-06T17:29:11.746Z,6.35
2023-10-06T17:31:40.047Z,3.55
2023-10-06T17:34:08.298Z,7.38
2023-10-06T17:36:36.136Z,6.50
2023-10-06T17:39:04.555Z,9.75
2023-10-06T17:41:32.634Z,2.85
2023-10-06T17:44:00.482Z,9.00
2023-10-06T17:46:29.968Z,7.15
2023-10-06T17:48:58.232Z,5.60
2023-10-06T17:51:26.575Z,10.77
2023-10-06T17:53:54.565Z,7.18
2023-10-06T17:56:22.572Z,4.88
2023-10-06T17:58:51.138Z,8.63
2023-10-06T18:01:20.048Z,8.80
2023-10-06T18:03:49.830Z,6.07
2023-10-06T18:06:18.556Z,9.63
2023-10-06T18:08:46.859Z,6.70
2023-10-06T18:11:15.609Z,8.20
2023-10-06T18:13:43.833Z,11.00
2023-10-06T18:16:11.789Z,9.95
2023-10-06T18:18:41.342Z,8.02
2023-10-06T18:21:10.601Z,12.37
2023-10-06T18:23:38.489Z,4.80
2023-10-06T18:26:12.850Z,10.98
2023-10-06T18:28:40.866Z,5.70
2023-10-06T18:31:09.062Z,6.78
2023-10-06T18:33:37.412Z,19.73
2023-10-06T18:36:08.397Z,6.72
2023-10-06T18:38:37.719Z,8.63
2023-10-06T18:41:08.267Z,12.35
2023-10-06T18:46:07.023Z,6.15
2023-10-06T18:48:34.892Z,13.35
2023-10-06T18:51:04.919Z,12.05
2023-10-06T18:53:34.051Z,8.43
2023-10-06T18:56:04.637Z,10.77
2023-10-06T18:58:33.401Z,9.95
2023-10-06T19:01:01.641Z,11.32
2023-10-06T19:03:29.621Z,10.50
2023-10-06T19:06:01.166Z,12.15
2023-10-06T19:08:32.615Z,17.40
2023-10-06T19:11:00.583Z,13.05
2023-10-06T19:13:30.280Z,15.02
2023-10-06T19:15:59.543Z,13.98
2023-10-06T19:18:30.111Z,12.77
2023-10-06T19:23:31.852Z,12.98
2023-10-06T19:26:04.437Z,13.82
2023-10-06T19:28:34.122Z,16.10
2023-10-06T19:31:02.108Z,12.63
2023-10-06T19:33:30.490Z,15.35
2023-10-06T19:35:58.638Z,16.38
2023-10-06T19:38:27.035Z,13.55
2023-10-06T19:40:54.971Z,16.30
2023-10-06T19:43:22.983Z,16.70
2023-10-06T19:45:53.012Z,16.85
2023-10-06T19:48:21.533Z,14.80
2023-10-06T19:50:49.775Z,19.88
2023-10-06T19:53:17.710Z,15.20
2023-10-06T19:55:45.604Z,16.25
2023-10-06T19:58:13.726Z,17.83
2023-10-06T20:00:43.817Z,17.00
2023-10-06T20:03:13.125Z,16.15
2023-10-06T20:05:42.368Z,15.88
2023-10-06T20:08:10.550Z,18.48
2023-10-06T20:10:38.497Z,14.85
2023-10-06T20:13:07.026Z,14.65
2023-10-06T20:15:36.145Z,15.68
2023-10-06T20:18:04.316Z,22.70
2023-10-06T20:20:33.554Z,19.20
2023-10-06T20:23:02.197Z,14.10
2023-10-06T20:25:30.898Z,16.33
2023-10-06T20:27:58.754Z,19.08
2023-10-06T20:30:27.366Z,18.30
2023-10-06T20:32:57.239Z,21.33
2023-10-06T20:35:27.743Z,16.75
2023-10-06T20:40:29.448Z,18.88
2023-10-06T20:42:58.660Z,18.73
2023-10-06T20:45:28.912Z,20.83
2023-10-06T20:47:57.315Z,12.63
2023-10-06T20:50:25.460Z,16.83
2023-10-06T20:52:54.504Z,16.17
2023-10-06T20:55:25.212Z,19.25
2023-10-06T20:57:53.253Z,14.98
2023-10-06T21:00:24.116Z,15.40
2023-10-06T21:02:52.226Z,14.27
2023-10-06T21:05:20.669Z,15.48
2023-10-06T21:07:49.375Z,13.63
2023-10-06T21:10:18.657Z,11.20
2023-10-06T21:12:48.412Z,10.60
2023-10-06T21:15:16.307Z,11.82
2023-10-06T21:17:44.427Z,11.52
2023-10-06T21:20:14.033Z,14.80
2023-10-06T21:22:42.147Z,8.13
2023-10-06T21:25:13.994Z,17.58
2023-10-06T21:27:42.029Z,11.88
2023-10-06T21:30:16.667Z,11.07
2023-10-06T21:32:45.556Z,13.75
2023-10-06T21:35:15.388Z,14.57
2023-10-06T21:37:43.723Z,9.75
2023-10-06T21:40:13.029Z,13.20
2023-10-06T21:42:41.243Z,11.43
2023-10-06T21:45:11.943Z,9.60
2023-10-06T21:47:40.028Z,10.93
2023-10-06T21:50:10.228Z,9.68
2023-10-06T21:52:38.326Z,11.55
2023-10-06T21:55:06.941Z,7.85
2023-10-06T21:57:36.061Z,6.68
2023-10-06T22:00:12.443Z,7.70
2023-10-06T22:02:43.805Z,6.53
2023-10-06T22:05:12.048Z,18.90
2023-10-06T22:07:40.929Z,9.43
2023-10-06T22:10:10.447Z,0.43
2023-10-06T22:12:38.509Z,0.93
2023-10-06T22:15:07.646Z,0.65
2023-10-06T22:17:36.247Z,1.10
2023-10-06T22:20:09.188Z,0.85
2023-10-06T22:22:37.638Z,2.10
2023-10-06T22:25:06.757Z,0.20
2023-10-06T22:27:34.644Z,0.20
2023-10-06T22:30:02.524Z,0.38
2023-10-06T22:32:30.851Z,0.63
2023-10-06T22:34:58.890Z,0.55
2023-10-06T22:37:28.250Z,2.20
2023-10-06T22:39:56.317Z,2.08
2023-10-06T22:42:24.247Z,0.45
2023-10-06T22:44:52.454Z,0.55
2023-10-06T22:47:20.410Z,0.17
2023-10-06T22:49:48.316Z,0.00
2023-10-06T22:52:16.180Z,2.40
2023-10-06T22:54:46.889Z,0.20
2023-10-06T22:57:14.818Z,0.47
2023-10-06T22:59:42.647Z,0.00
2023-10-06T23:02:10.899Z,0.10
2023-10-06T23:04:38.904Z,0.00
2023-10-06T23:07:06.774Z,0.00
2023-10-06T23:09:36.482Z,1.23
2023-10-06T23:12:06.058Z,0.10
2023-10-06T23:14:33.929Z,6.50
2023-10-06T23:17:05.427Z,0.35
2023-10-06T23:19:35.390Z,0.00
2023-10-06T23:22:04.185Z,0.00
2023-10-06T23:24:48.866Z,0.10
2023-10-06T23:27:20.744Z,0.00
2023-10-06T23:29:49.620Z,4.47
2023-10-06T23:32:18.541Z,0.10
2023-10-06T23:34:46.619Z,4.13
2023-10-06T23:37:15.141Z,0.40
2023-10-06T23:39:43.130Z,0.15
2023-10-06T23:42:15.848Z,0.10
2023-10-06T23:44:49.109Z,1.17
2023-10-06T23:47:19.775Z,0.00
2023-10-06T23:49:48.388Z,0.10
2023-10-06T23:52:16.712Z,0.63
2023-10-06T23:54:47.921Z,0.00
2023-10-06T23:57:16.973Z,0.00
2023-10-06T23:59:49.231Z,0.15
